createdAt,value
2019-01-10T00:03:27.190Z,2.52
2019-01-10T00:08:29.202Z,2.52
2019-01-10T00:13:31.265Z,2.56
2019-01-10T00:18:33.237Z,2.51
2019-01-10T00:23:35.293Z,2.54
2019-01-10T00:28:37.321Z,2.51
2019-01-10T00:33:39.339Z,2.50
2019-01-10T00:38:41.377Z,2.49
2019-01-10T00:43:43.442Z,2.53
2019-01-10T00:48:45.747Z,2.51
2019-01-10T00:53:47.782Z,2.47
2019-01-10T00:58:49.793Z,2.46
2019-01-10T01:03:52.487Z,2.55
2019-01-10T01:08:54.487Z,2.55
2019-01-10T01:13:56.639Z,2.51
2019-01-10T01:18:58.654Z,2.56
2019-01-10T01:24:00.674Z,2.55
2019-01-10T01:29:02.677Z,2.50
2019-01-10T01:34:04.692Z,2.45
2019-01-10T01:39:07.512Z,2.51
2019-01-10T01:44:09.542Z,2.46
2019-01-10T01:49:11.595Z,2.45
2019-01-10T01:54:13.632Z,2.46
2019-01-10T01:59:15.658Z,2.52
2019-01-10T02:04:17.724Z,2.39
2019-01-10T02:09:19.740Z,2.42
2019-01-10T02:14:21.791Z,2.47
2019-01-10T02:19:23.780Z,2.49
2019-01-10T02:24:25.805Z,2.44
2019-01-10T02:29:28.091Z,2.49
2019-01-10T02:34:30.308Z,2.53
2019-01-10T02:39:32.568Z,2.49
2019-01-10T02:44:34.591Z,2.52
2019-01-10T02:49:36.609Z,2.46
2019-01-10T02:54:38.609Z,2.50
2019-01-10T02:59:40.619Z,2.51
2019-01-10T03:04:42.678Z,2.46
2019-01-10T03:09:44.730Z,2.55
2019-01-10T03:14:46.812Z,2.47
2019-01-10T03:19:48.836Z,2.44
2019-01-10T03:24:50.921Z,2.46
2019-01-10T03:29:52.955Z,2.48
2019-01-10T03:34:54.980Z,2.47
2019-01-10T03:39:56.993Z,2.44
2019-01-10T03:44:59.015Z,2.45
2019-01-10T03:50:01.036Z,2.41
2019-01-10T03:55:03.440Z,2.49
2019-01-10T04:00:08.942Z,2.42
2019-01-10T04:05:11.440Z,2.37
2019-01-10T04:10:13.993Z,2.47
2019-01-10T04:15:16.259Z,2.41
2019-01-10T04:20:18.445Z,2.42
2019-01-10T04:25:20.490Z,2.41
2019-01-10T04:30:22.546Z,2.40
2019-01-10T04:35:24.569Z,2.41
2019-01-10T04:40:26.523Z,2.37
2019-01-10T04:45:28.520Z,2.34
2019-01-10T04:50:30.739Z,2.28
2019-01-10T04:55:32.776Z,2.34
2019-01-10T05:00:34.779Z,2.28
2019-01-10T05:05:36.813Z,2.27
2019-01-10T05:10:38.873Z,2.25
2019-01-10T05:15:40.963Z,2.17
2019-01-10T05:20:42.976Z,2.09
2019-01-10T05:25:44.984Z,2.11
2019-01-10T05:30:47.018Z,2.16
2019-01-10T05:35:49.485Z,2.17
2019-01-10T05:40:52.242Z,2.23
2019-01-10T05:45:54.338Z,2.13
2019-01-10T05:50:57.278Z,2.17
2019-01-10T05:55:59.300Z,2.12
2019-01-10T06:01:02.511Z,2.11
2019-01-10T06:06:04.629Z,2.05
2019-01-10T06:11:06.681Z,2.23
2019-01-10T06:16:08.720Z,2.10
2019-01-10T06:21:10.729Z,2.11
2019-01-10T06:26:12.732Z,2.15
2019-01-10T06:31:14.859Z,2.14
2019-01-10T06:36:16.914Z,2.07
2019-01-10T06:41:18.903Z,2.03
2019-01-10T06:46:20.891Z,2.04
2019-01-10T06:51:22.951Z,2.04
2019-01-10T06:56:25.036Z,1.99
2019-01-10T07:01:27.090Z,2.05
2019-01-10T07:06:29.312Z,1.95
2019-01-10T07:11:31.570Z,1.95
2019-01-10T07:16:33.573Z,1.91
2019-01-10T07:21:58.971Z,2.11
2019-01-10T07:27:01.010Z,2.07
2019-01-10T07:32:03.146Z,2.05
2019-01-10T07:37:12.696Z,2.10
2019-01-10T07:42:09.376Z,2.15
2019-01-10T07:47:11.414Z,2.12
2019-01-10T07:52:13.622Z,2.23
2019-01-10T07:57:15.702Z,2.18
2019-01-10T08:02:17.703Z,2.18
2019-01-10T08:07:19.991Z,2.20
2019-01-10T08:12:22.071Z,2.15
2019-01-10T08:17:24.107Z,2.25
2019-01-10T08:22:28.046Z,2.29
2019-01-10T08:27:30.214Z,2.28
2019-01-10T08:32:32.244Z,2.33
2019-01-10T08:37:34.251Z,2.33
2019-01-10T08:42:36.307Z,2.39
2019-01-10T08:47:38.299Z,2.36
2019-01-10T08:52:40.331Z,2.38
2019-01-10T08:57:42.313Z,2.45
2019-01-10T09:02:44.350Z,2.60
2019-01-10T09:07:46.363Z,2.57
2019-01-10T09:12:48.508Z,2.89
2019-01-10T09:17:50.546Z,2.90
2019-01-10T09:22:52.537Z,2.55
2019-01-10T09:27:54.835Z,2.60
2019-01-10T09:32:56.834Z,2.65
2019-01-10T09:37:59.233Z,2.73
2019-01-10T09:43:01.492Z,2.94
2019-01-10T09:48:03.518Z,2.85
2019-01-10T09:53:05.497Z,2.93
2019-01-10T09:58:07.505Z,2.85
2019-01-10T10:03:10.377Z,2.95
2019-01-10T10:08:12.410Z,3.07
2019-01-10T10:13:15.252Z,3.35
2019-01-10T10:18:17.363Z,3.18
2019-01-10T10:23:26.803Z,3.21
2019-01-10T10:28:23.324Z,3.29
2019-01-10T10:33:25.321Z,3.42
2019-01-10T10:38:27.329Z,3.67
2019-01-10T10:43:29.389Z,3.21
2019-01-10T10:48:31.403Z,3.37
2019-01-10T10:53:33.647Z,3.14
2019-01-10T10:58:35.674Z,3.16
2019-01-10T11:03:39.674Z,3.17
2019-01-10T11:08:41.694Z,3.15
2019-01-10T11:13:43.879Z,2.99
2019-01-10T11:18:45.926Z,3.05
2019-01-10T11:23:47.939Z,3.15
2019-01-10T11:28:49.996Z,2.96
2019-01-10T11:33:52.323Z,2.89
2019-01-10T11:38:54.345Z,2.83
2019-01-10T11:43:57.667Z,2.64
2019-01-10T11:48:59.676Z,2.91
2019-01-10T11:54:01.689Z,2.89
2019-01-10T11:59:03.670Z,2.87
2019-01-10T12:04:05.720Z,2.81
2019-01-10T12:09:07.784Z,2.72
2019-01-10T12:14:09.799Z,2.77
2019-01-10T12:19:11.859Z,2.86
2019-01-10T12:24:15.721Z,2.86
2019-01-10T12:29:17.757Z,2.57
2019-01-10T12:34:19.791Z,2.80
2019-01-10T12:39:21.795Z,2.82
2019-01-10T12:44:23.851Z,2.86
2019-01-10T12:49:25.949Z,2.87
2019-01-10T12:54:27.934Z,2.74
2019-01-10T12:59:29.976Z,2.81
2019-01-10T13:04:33.980Z,2.88
2019-01-10T13:09:35.954Z,2.66
2019-01-10T13:14:38.020Z,2.71
2019-01-10T13:19:40.055Z,2.62
2019-01-10T13:24:44.156Z,2.54
2019-01-10T13:29:45.935Z,2.45
2019-01-10T13:34:47.874Z,2.54
2019-01-10T13:39:49.895Z,2.39
2019-01-10T13:44:51.842Z,2.35
2019-01-10T13:49:53.848Z,2.60
2019-01-10T13:54:55.952Z,2.32
2019-01-10T13:59:58.092Z,2.50
2019-01-10T14:05:00.240Z,2.45
2019-01-10T14:10:02.897Z,2.46
2019-01-10T14:15:06.802Z,2.53
2019-01-10T14:20:09.117Z,2.31
2019-01-10T14:25:11.225Z,2.26
2019-01-10T14:30:37.856Z,2.18
2019-01-10T14:35:39.907Z,2.28
2019-01-10T14:40:41.948Z,2.41
2019-01-10T14:45:44.067Z,2.20
2019-01-10T14:50:46.383Z,2.25
2019-01-10T14:55:49.526Z,2.21
2019-01-10T15:00:52.573Z,2.23
2019-01-10T15:05:54.844Z,2.13
2019-01-10T15:10:57.087Z,2.10
2019-01-10T15:15:59.035Z,2.06
2019-01-10T15:21:01.082Z,2.06
2019-01-10T15:26:03.208Z,1.96
2019-01-10T15:31:05.201Z,2.01
2019-01-10T15:36:07.238Z,1.93
2019-01-10T15:41:09.731Z,1.98
2019-01-10T15:46:11.901Z,1.94
2019-01-10T15:51:13.948Z,1.93
2019-01-10T15:56:15.969Z,1.83
2019-01-10T16:01:18.003Z,1.90
2019-01-10T16:06:20.012Z,1.86
2019-01-10T16:11:22.048Z,1.67
2019-01-10T16:16:24.366Z,1.68
2019-01-10T16:21:26.487Z,1.70
2019-01-10T16:26:29.603Z,1.62
2019-01-10T16:31:31.604Z,1.71
2019-01-10T16:36:33.879Z,1.55
2019-01-10T16:41:35.962Z,1.62
2019-01-10T16:51:54.286Z,1.72
2019-01-10T16:56:56.257Z,1.58
2019-01-10T17:01:58.257Z,1.52
2019-01-10T17:07:00.270Z,1.41
2019-01-10T17:12:02.361Z,1.27
2019-01-10T17:17:04.432Z,1.34
2019-01-10T17:22:06.553Z,1.21
2019-01-10T17:27:08.751Z,1.19
2019-01-10T17:32:10.795Z,1.10
2019-01-10T17:37:12.858Z,1.07
2019-01-10T17:42:15.548Z,0.97
2019-01-10T17:47:17.945Z,1.00
2019-01-10T17:52:25.058Z,1.10
2019-01-10T17:57:24.247Z,0.96
2019-01-10T18:02:26.547Z,1.08
2019-01-10T18:07:28.878Z,1.00
2019-01-10T18:12:30.914Z,1.07
2019-01-10T18:17:33.179Z,0.97
2019-01-10T18:22:35.239Z,0.90
2019-01-10T18:27:37.231Z,0.86
2019-01-10T18:32:39.263Z,0.69
2019-01-10T18:37:41.359Z,0.62
2019-01-10T18:48:12.754Z,0.64
2019-01-10T18:53:14.880Z,0.67
2019-01-10T18:58:16.911Z,0.62
2019-01-10T19:03:18.977Z,0.76
2019-01-10T19:08:21.059Z,0.80
2019-01-10T19:13:23.079Z,0.73
2019-01-10T19:18:25.130Z,0.69
2019-01-10T19:23:27.443Z,0.66
2019-01-10T19:28:29.437Z,0.70
2019-01-10T19:33:31.558Z,0.72
2019-01-10T19:38:34.262Z,0.74
2019-01-10T19:43:36.611Z,0.83
2019-01-10T19:48:38.651Z,0.86
2019-01-10T19:53:40.668Z,0.75
2019-01-10T19:58:42.697Z,0.70
2019-01-10T20:03:44.837Z,0.77
2019-01-10T20:08:46.855Z,0.81
2019-01-10T20:13:48.969Z,0.81
2019-01-10T20:18:51.000Z,0.78
2019-01-10T20:23:53.087Z,0.77
2019-01-10T20:28:55.117Z,0.78
2019-01-10T20:33:57.099Z,0.83
2019-01-10T20:38:59.160Z,0.75
2019-01-10T20:44:01.430Z,0.81
2019-01-10T20:49:03.585Z,0.85
2019-01-10T20:54:05.634Z,0.88
2019-01-10T20:59:08.164Z,0.85
2019-01-10T21:04:10.250Z,0.75
2019-01-10T21:09:13.082Z,0.74
2019-01-10T21:14:16.516Z,0.81
2019-01-10T21:19:18.574Z,0.72
2019-01-10T21:24:20.600Z,0.76
2019-01-10T21:29:22.704Z,0.73
2019-01-10T21:34:24.750Z,0.87
2019-01-10T21:39:26.839Z,0.87
2019-01-10T21:44:29.052Z,0.82
2019-01-10T21:49:31.880Z,0.89
2019-01-10T21:54:37.656Z,0.89
2019-01-10T22:04:52.158Z,0.80
2019-01-10T22:09:54.745Z,0.89
2019-01-10T22:14:56.811Z,0.84
2019-01-10T22:19:58.860Z,0.86
2019-01-10T22:25:01.139Z,0.81
2019-01-10T22:30:25.034Z,0.87
2019-01-10T22:35:27.376Z,0.96
2019-01-10T22:40:29.474Z,0.96
2019-01-10T22:45:31.569Z,0.90
2019-01-10T22:50:33.640Z,0.90
2019-01-10T22:55:36.043Z,0.99
2019-01-10T23:01:21.074Z,0.96
2019-01-10T23:06:23.212Z,0.95
2019-01-10T23:11:25.319Z,0.92
2019-01-10T23:17:08.599Z,0.89
2019-01-10T23:22:12.595Z,0.89
2019-01-10T23:27:14.633Z,0.91
2019-01-10T23:32:57.448Z,0.89
2019-01-10T23:38:08.272Z,0.80
2019-01-10T23:43:10.309Z,0.88
2019-01-10T23:48:12.334Z,0.91
2019-01-10T23:53:14.369Z,0.86
2019-01-10T23:58:16.575Z,0.81
